sensor_id;sensor_type;location;lat;lon;timestamp;pressure;altitude;pressure_sealevel;temperature;humidity
58243;BME280;50118;53.232;8.252;2022-12-05T00:00:58;101869.13;;;3.27;100.00
58243;BME280;50118;53.232;8.252;2022-12-05T00:03:26;101861.09;;;3.30;100.00
58243;BME280;50118;53.232;8.252;2022-12-05T00:05:52;101867.06;;;3.34;100.00
58243;BME280;50118;53.232;8.252;2022-12-05T00:08:17;101859.50;;;3.26;100.00
58243;BME280;50118;53.232;8.252;2022-12-05T00:10:43;101861.28;;;3.26;100.00
58243;BME280;50118;53.232;8.252;2022-12-05T00:13:09;101862.00;;;3.29;100.00
58243;BME280;50118;53.232;8.252;2022-12-05T00:15:36;101855.81;;;3.30;100.00
58243;BME280;50118;53.232;8.252;2022-12-05T00:18:02;101855.72;;;3.32;100.00
58243;BME280;50118;53.232;8.252;2022-12-05T00:20:27;101845.28;;;3.30;100.00
58243;BME280;50118;53.232;8.252;2022-12-05T00:22:53;101853.19;;;3.30;100.00
58243;BME280;50118;53.232;8.252;2022-12-05T00:25:18;101852.19;;;3.33;100.00
58243;BME280;50118;53.232;8.252;2022-12-05T00:27:44;101853.84;;;3.35;100.00
58243;BME280;50118;53.232;8.252;2022-12-05T00:30:09;101846.69;;;3.38;100.00
58243;BME280;50118;53.232;8.252;2022-12-05T00:32:35;101856.28;;;3.39;100.00
58243;BME280;50118;53.232;8.252;2022-12-05T00:35:00;101850.13;;;3.40;100.00
58243;BME280;50118;53.232;8.252;2022-12-05T00:37:26;101851.84;;;3.41;100.00
58243;BME280;50118;53.232;8.252;2022-12-05T00:39:51;101856.66;;;3.50;100.00
58243;BME280;50118;53.232;8.252;2022-12-05T00:42:16;101861.78;;;3.53;100.00
58243;BME280;50118;53.232;8.252;2022-12-05T00:44:42;101856.66;;;3.50;100.00
58243;BME280;50118;53.232;8.252;2022-12-05T00:47:07;101852.22;;;3.50;100.00
58243;BME280;50118;53.232;8.252;2022-12-05T00:49:33;101855.75;;;3.51;100.00
58243;BME280;50118;53.232;8.252;2022-12-05T00:51:58;101854.94;;;3.49;100.00
58243;BME280;50118;53.232;8.252;2022-12-05T00:54:24;101858.38;;;3.51;100.00
58243;BME280;50118;53.232;8.252;2022-12-05T00:56:49;101853.97;;;3.51;100.00
58243;BME280;50118;53.232;8.252;2022-12-05T00:59:18;101846.91;;;3.52;100.00
58243;BME280;50118;53.232;8.252;2022-12-05T01:01:45;101852.38;;;3.47;100.00
58243;BME280;50118;53.232;8.252;2022-12-05T01:04:14;101847.78;;;3.52;100.00
58243;BME280;50118;53.232;8.252;2022-12-05T01:06:41;101849.38;;;3.55;100.00
58243;BME280;50118;53.232;8.252;2022-12-05T01:09:08;101846.81;;;3.53;100.00
58243;BME280;50118;53.232;8.252;2022-12-05T01:11:35;101848.63;;;3.53;100.00
58243;BME280;50118;53.232;8.252;2022-12-05T01:14:01;101846.19;;;3.48;100.00
58243;BME280;50118;53.232;8.252;2022-12-05T01:16:30;101845.91;;;3.54;100.00
58243;BME280;50118;53.232;8.252;2022-12-05T01:18:59;101859.16;;;3.53;100.00
58243;BME280;50118;53.232;8.252;2022-12-05T01:21:25;101856.22;;;3.59;100.00
58243;BME280;50118;53.232;8.252;2022-12-05T01:23:51;101853.88;;;3.53;100.00
58243;BME280;50118;53.232;8.252;2022-12-05T01:26:18;101854.66;;;3.55;100.00
58243;BME280;50118;53.232;8.252;2022-12-05T01:28:44;101860.06;;;3.52;100.00
58243;BME280;50118;53.232;8.252;2022-12-05T01:31:30;101856.53;;;3.53;100.00
58243;BME280;50118;53.232;8.252;2022-12-05T01:33:57;101855.44;;;3.57;100.00
58243;BME280;50118;53.232;8.252;2022-12-05T01:36:24;101865.19;;;3.55;100.00
58243;BME280;50118;53.232;8.252;2022-12-05T01:38:50;101865.91;;;3.59;100.00
58243;BME280;50118;53.232;8.252;2022-12-05T01:41:19;101859.78;;;3.58;100.00
58243;BME280;50118;53.232;8.252;2022-12-05T01:44:05;101862.56;;;3.55;100.00
58243;BME280;50118;53.232;8.252;2022-12-05T01:46:36;101859.94;;;3.55;100.00
58243;BME280;50118;53.232;8.252;2022-12-05T01:49:06;101863.91;;;3.45;100.00
58243;BME280;50118;53.232;8.252;2022-12-05T01:51:35;101856.94;;;3.44;100.00
58243;BME280;50118;53.232;8.252;2022-12-05T01:54:03;101856.03;;;3.45;100.00
58243;BME280;50118;53.232;8.252;2022-12-05T01:56:31;101851.66;;;3.44;100.00
58243;BME280;50118;53.232;8.252;2022-12-05T01:58:58;101851.25;;;3.34;100.00
58243;BME280;50118;53.232;8.252;2022-12-05T02:01:24;101844.97;;;3.36;100.00
58243;BME280;50118;53.232;8.252;2022-12-05T02:03:51;101838.16;;;3.32;100.00
58243;BME280;50118;53.232;8.252;2022-12-05T02:06:20;101837.22;;;3.33;100.00
58243;BME280;50118;53.232;8.252;2022-12-05T02:08:47;101824.34;;;3.27;100.00
58243;BME280;50118;53.232;8.252;2022-12-05T02:11:13;101832.91;;;3.32;100.00
58243;BME280;50118;53.232;8.252;2022-12-05T02:14:00;101836.31;;;3.34;100.00
58243;BME280;50118;53.232;8.252;2022-12-05T02:30:26;101832.81;;;3.34;100.00
58243;BME280;50118;53.232;8.252;2022-12-05T02:33:25;101827.63;;;3.32;100.00
58243;BME280;50118;53.232;8.252;2022-12-05T02:38:44;101827.91;;;3.26;100.00
58243;BME280;50118;53.232;8.252;2022-12-05T02:46:24;101829.50;;;3.30;100.00
58243;BME280;50118;53.232;8.252;2022-12-05T02:48:55;101827.97;;;3.25;100.00
58243;BME280;50118;53.232;8.252;2022-12-05T02:51:23;101823.59;;;3.25;100.00
58243;BME280;50118;53.232;8.252;2022-12-05T02:53:50;101819.09;;;3.27;100.00
58243;BME280;50118;53.232;8.252;2022-12-05T02:56:18;101806.91;;;3.25;100.00
58243;BME280;50118;53.232;8.252;2022-12-05T02:58:54;101817.56;;;3.22;100.00
58243;BME280;50118;53.232;8.252;2022-12-05T03:01:25;101828.03;;;3.23;100.00
58243;BME280;50118;53.232;8.252;2022-12-05T03:03:53;101830.03;;;3.18;100.00
58243;BME280;50118;53.232;8.252;2022-12-05T03:06:26;101829.06;;;3.21;100.00
58243;BME280;50118;53.232;8.252;2022-12-05T03:08:57;101826.63;;;3.16;100.00
58243;BME280;50118;53.232;8.252;2022-12-05T03:11:26;101832.31;;;3.26;100.00
58243;BME280;50118;53.232;8.252;2022-12-05T03:13:57;101826.41;;;3.21;100.00
58243;BME280;50118;53.232;8.252;2022-12-05T03:16:34;101827.19;;;3.23;100.00
58243;BME280;50118;53.232;8.252;2022-12-05T03:19:05;101826.41;;;3.21;100.00
58243;BME280;50118;53.232;8.252;2022-12-05T03:21:51;101822.00;;;3.21;100.00
58243;BME280;50118;53.232;8.252;2022-12-05T03:24:19;101830.91;;;3.18;100.00
58243;BME280;50118;53.232;8.252;2022-12-05T03:27:08;101825.66;;;3.18;100.00
58243;BME280;50118;53.232;8.252;2022-12-05T03:29:44;101829.75;;;3.24;100.00
58243;BME280;50118;53.232;8.252;2022-12-05T03:35:06;101826.22;;;3.25;100.00
58243;BME280;50118;53.232;8.252;2022-12-05T03:42:53;101816.72;;;3.21;100.00
58243;BME280;50118;53.232;8.252;2022-12-05T03:45:27;101814.03;;;3.23;100.00
58243;BME280;50118;53.232;8.252;2022-12-05T03:48:06;101824.56;;;3.23;100.00
58243;BME280;50118;53.232;8.252;2022-12-05T03:50:34;101817.81;;;3.17;100.00
58243;BME280;50118;53.232;8.252;2022-12-05T03:53:09;101816.72;;;3.21;100.00
58243;BME280;50118;53.232;8.252;2022-12-05T03:55:38;101820.28;;;3.20;100.00
58243;BME280;50118;53.232;8.252;2022-12-05T03:58:09;101817.63;;;3.20;100.00
58243;BME280;50118;53.232;8.252;2022-12-05T04:00:39;101823.72;;;3.22;100.00
58243;BME280;50118;53.232;8.252;2022-12-05T04:03:16;101821.84;;;3.24;100.00
58243;BME280;50118;53.232;8.252;2022-12-05T04:05:51;101820.78;;;3.28;100.00
58243;BME280;50118;53.232;8.252;2022-12-05T04:08:22;101818.78;;;3.33;100.00
58243;BME280;50118;53.232;8.252;2022-12-05T04:10:52;101811.97;;;3.29;100.00
58243;BME280;50118;53.232;8.252;2022-12-05T04:16:09;101817.38;;;3.26;100.00
58243;BME280;50118;53.232;8.252;2022-12-05T04:19:11;101813.88;;;3.26;100.00
58243;BME280;50118;53.232;8.252;2022-12-05T04:21:43;101827.06;;;3.26;100.00
58243;BME280;50118;53.232;8.252;2022-12-05T04:24:13;101824.22;;;3.30;100.00
58243;BME280;50118;53.232;8.252;2022-12-05T04:30:12;101825.97;;;3.30;100.00
58243;BME280;50118;53.232;8.252;2022-12-05T04:32:44;101827.91;;;3.26;100.00
58243;BME280;50118;53.232;8.252;2022-12-05T04:35:25;101831.94;;;3.33;100.00
58243;BME280;50118;53.232;8.252;2022-12-05T04:38:01;101824.22;;;3.30;100.00
58243;BME280;50118;53.232;8.252;2022-12-05T04:40:35;101827.75;;;3.29;100.00
58243;BME280;50118;53.232;8.252;2022-12-05T04:43:03;101822.63;;;3.26;100.00
58243;BME280;50118;53.232;8.252;2022-12-05T04:45:31;101831.19;;;3.31;100.00
58243;BME280;50118;53.232;8.252;2022-12-05T04:48:01;101829.63;;;3.27;100.00
58243;BME280;50118;53.232;8.252;2022-12-05T04:50:30;101834.66;;;3.32;100.00
58243;BME280;50118;53.232;8.252;2022-12-05T04:52:58;101831.94;;;3.33;100.00
58243;BME280;50118;53.232;8.252;2022-12-05T04:55:25;101836.59;;;3.28;100.00
58243;BME280;50118;53.232;8.252;2022-12-05T05:00:38;101824.28;;;3.29;100.00
58243;BME280;50118;53.232;8.252;2022-12-05T05:03:16;101828.53;;;3.31;100.00
58243;BME280;50118;53.232;8.252;2022-12-05T05:05:46;101821.28;;;3.36;100.00
58243;BME280;50118;53.232;8.252;2022-12-05T05:08:18;101824.13;;;3.32;100.00
58243;BME280;50118;53.232;8.252;2022-12-05T05:10:53;101818.78;;;3.33;100.00
58243;BME280;50118;53.232;8.252;2022-12-05T05:13:21;101823.06;;;3.36;100.00
58243;BME280;50118;53.232;8.252;2022-12-05T05:15:47;101820.50;;;3.34;100.00
58243;BME280;50118;53.232;8.252;2022-12-05T05:18:12;101819.78;;;3.31;100.00
58243;BME280;50118;53.232;8.252;2022-12-05T05:20:38;101821.34;;;3.35;100.00
58243;BME280;50118;53.232;8.252;2022-12-05T05:23:03;101818.06;;;3.30;100.00
58243;BME280;50118;53.232;8.252;2022-12-05T05:25:28;101819.72;;;3.32;100.00
58243;BME280;50118;53.232;8.252;2022-12-05T05:27:55;101809.19;;;3.32;100.00
58243;BME280;50118;53.232;8.252;2022-12-05T05:30:22;101816.16;;;3.33;100.00
58243;BME280;50118;53.232;8.252;2022-12-05T05:32:48;101812.59;;;3.34;100.00
58243;BME280;50118;53.232;8.252;2022-12-05T05:35:14;101815.09;;;3.38;100.00
58243;BME280;50118;53.232;8.252;2022-12-05T05:37:40;101809.53;;;3.44;100.00
58243;BME280;50118;53.232;8.252;2022-12-05T05:40:08;101811.16;;;3.46;100.00
58243;BME280;50118;53.232;8.252;2022-12-05T05:42:34;101816.38;;;3.48;100.00
58243;BME280;50118;53.232;8.252;2022-12-05T05:44:59;101810.97;;;3.51;100.00
58243;BME280;50118;53.232;8.252;2022-12-05T05:47:24;101808.97;;;3.56;100.00
58243;BME280;50118;53.232;8.252;2022-12-05T05:49:50;101808.16;;;3.54;100.00
58243;BME280;50118;53.232;8.252;2022-12-05T05:52:15;101808.97;;;3.56;100.00
58243;BME280;50118;53.232;8.252;2022-12-05T05:54:41;101811.59;;;3.56;100.00
58243;BME280;50118;53.232;8.252;2022-12-05T05:57:06;101811.53;;;3.58;100.00
58243;BME280;50118;53.232;8.252;2022-12-05T05:59:32;101812.06;;;3.64;100.00
58243;BME280;50118;53.232;8.252;2022-12-05T06:01:57;101805.22;;;3.60;100.00
58243;BME280;50118;53.232;8.252;2022-12-05T06:04:22;101805.38;;;3.57;100.00
58243;BME280;50118;53.232;8.252;2022-12-05T06:06:48;101808.78;;;3.59;100.00
58243;BME280;50118;53.232;8.252;2022-12-05T06:09:13;101806.00;;;3.62;100.00
58243;BME280;50118;53.232;8.252;2022-12-05T06:11:39;101804.16;;;3.64;100.00
58243;BME280;50118;53.232;8.252;2022-12-05T06:14:04;101802.31;;;3.66;100.00
58243;BME280;50118;53.232;8.252;2022-12-05T06:16:30;101806.63;;;3.67;100.00
58243;BME280;50118;53.232;8.252;2022-12-05T06:18:56;101804.63;;;3.72;100.00
58243;BME280;50118;53.232;8.252;2022-12-05T06:21:22;101804.63;;;3.72;100.00
58243;BME280;50118;53.232;8.252;2022-12-05T06:23:47;101805.41;;;3.74;100.00
58243;BME280;50118;53.232;8.252;2022-12-05T06:26:16;101800.94;;;3.77;100.00
58243;BME280;50118;53.232;8.252;2022-12-05T06:28:42;101809.91;;;3.72;100.00
58243;BME280;50118;53.232;8.252;2022-12-05T06:31:18;101811.63;;;3.73;100.00
58243;BME280;50118;53.232;8.252;2022-12-05T06:33:44;101809.06;;;3.72;100.00
58243;BME280;50118;53.232;8.252;2022-12-05T06:36:11;101805.66;;;3.70;100.00
58243;BME280;50118;53.232;8.252;2022-12-05T06:38:37;101810.78;;;3.73;100.00
58243;BME280;50118;53.232;8.252;2022-12-05T06:41:06;101814.13;;;3.77;100.00
58243;BME280;50118;53.232;8.252;2022-12-05T06:43:32;101812.41;;;3.76;100.00
58243;BME280;50118;53.232;8.252;2022-12-05T06:45:58;101806.34;;;3.73;100.00
58243;BME280;50118;53.232;8.252;2022-12-05T06:48:23;101818.44;;;3.78;100.00
58243;BME280;50118;53.232;8.252;2022-12-05T06:50:52;101811.63;;;3.73;100.00
58243;BME280;50118;53.232;8.252;2022-12-05T06:53:18;101813.31;;;3.74;100.00
58243;BME280;50118;53.232;8.252;2022-12-05T06:55:53;101812.59;;;3.71;100.00
58243;BME280;50118;53.232;8.252;2022-12-05T06:58:19;101810.69;;;3.74;100.00
58243;BME280;50118;53.232;8.252;2022-12-05T07:00:44;101810.53;;;3.78;100.00
58243;BME280;50118;53.232;8.252;2022-12-05T07:03:28;101819.38;;;3.77;100.00
58243;BME280;50118;53.232;8.252;2022-12-05T07:05:53;101809.63;;;3.79;100.00
58243;BME280;50118;53.232;8.252;2022-12-05T07:08:19;101819.13;;;3.81;100.00
58243;BME280;50118;53.232;8.252;2022-12-05T07:10:50;101820.44;;;3.72;100.00
58243;BME280;50118;53.232;8.252;2022-12-05T07:13:16;101824.72;;;3.75;100.00
58243;BME280;50118;53.232;8.252;2022-12-05T07:15:41;101819.59;;;3.72;100.00
58243;BME280;50118;53.232;8.252;2022-12-05T07:18:07;101817.75;;;3.74;100.00
58243;BME280;50118;53.232;8.252;2022-12-05T07:20:32;101819.47;;;3.75;100.00
58243;BME280;50118;53.232;8.252;2022-12-05T07:22:58;101821.22;;;3.74;100.00
58243;BME280;50118;53.232;8.252;2022-12-05T07:25:23;101814.41;;;3.70;100.00
58243;BME280;50118;53.232;8.252;2022-12-05T07:27:48;101809.28;;;3.67;100.00
58243;BME280;50118;53.232;8.252;2022-12-05T07:30:14;101808.34;;;3.68;100.00
58243;BME280;50118;53.232;8.252;2022-12-05T07:32:39;101813.78;;;3.65;100.00
58243;BME280;50118;53.232;8.252;2022-12-05T07:35:05;101806.00;;;3.62;100.00
58243;BME280;50118;53.232;8.252;2022-12-05T07:37:30;101803.38;;;3.62;100.00
58243;BME280;50118;53.232;8.252;2022-12-05T07:39:56;101803.22;;;3.65;100.00
58243;BME280;50118;53.232;8.252;2022-12-05T07:42:21;101795.53;;;3.61;100.00
58243;BME280;50118;53.232;8.252;2022-12-05T07:44:47;101801.69;;;3.61;100.00
58243;BME280;50118;53.232;8.252;2022-12-05T07:47:12;101801.91;;;3.57;100.00
58243;BME280;50118;53.232;8.252;2022-12-05T07:49:37;101797.41;;;3.59;100.00
58243;BME280;50118;53.232;8.252;2022-12-05T07:52:03;101794.84;;;3.57;100.00
58243;BME280;50118;53.232;8.252;2022-12-05T07:54:28;101807.25;;;3.55;100.00
58243;BME280;50118;53.232;8.252;2022-12-05T07:56:54;101801.13;;;3.54;100.00
58243;BME280;50118;53.232;8.252;2022-12-05T07:59:19;101801.19;;;3.53;100.00
58243;BME280;50118;53.232;8.252;2022-12-05T08:01:45;101807.38;;;3.52;100.00
58243;BME280;50118;53.232;8.252;2022-12-05T08:04:10;101795.16;;;3.51;100.00
58243;BME280;50118;53.232;8.252;2022-12-05T08:06:35;101810.22;;;3.47;100.00
58243;BME280;50118;53.232;8.252;2022-12-05T08:09:01;101803.19;;;3.48;100.00
58243;BME280;50118;53.232;8.252;2022-12-05T08:11:29;101798.97;;;3.44;100.00
58243;BME280;50118;53.232;8.252;2022-12-05T08:13:55;101807.75;;;3.44;100.00
58243;BME280;50118;53.232;8.252;2022-12-05T08:16:24;101811.25;;;3.45;100.00
58243;BME280;50118;53.232;8.252;2022-12-05T08:18:54;101813.66;;;3.49;100.00
58243;BME280;50118;53.232;8.252;2022-12-05T08:21:20;101817.34;;;3.45;100.00
58243;BME280;50118;53.232;8.252;2022-12-05T08:23:45;101817.41;;;3.44;100.00
58243;BME280;50118;53.232;8.252;2022-12-05T08:26:16;101810.88;;;3.52;100.00
58243;BME280;50118;53.232;8.252;2022-12-05T08:28:43;101814.66;;;3.47;100.00
58243;BME280;50118;53.232;8.252;2022-12-05T08:31:09;101829.53;;;3.48;100.00
58243;BME280;50118;53.232;8.252;2022-12-05T08:33:36;101812.78;;;3.49;100.00
58243;BME280;50118;53.232;8.252;2022-12-05T08:36:04;101825.19;;;3.47;100.00
58243;BME280;50118;53.232;8.252;2022-12-05T08:38:30;101823.31;;;3.49;100.00
58243;BME280;50118;53.232;8.252;2022-12-05T08:40:59;101828.13;;;3.41;100.00
58243;BME280;50118;53.232;8.252;2022-12-05T08:43:25;101827.97;;;3.44;100.00
58243;BME280;50118;53.232;8.252;2022-12-05T08:45:53;101827.13;;;3.43;100.00
58243;BME280;50118;53.232;8.252;2022-12-05T08:48:19;101822.69;;;3.44;100.00
58243;BME280;50118;53.232;8.252;2022-12-05T08:50:45;101826.28;;;3.43;100.00
58243;BME280;50118;53.232;8.252;2022-12-05T08:53:11;101824.63;;;3.40;100.00
58243;BME280;50118;53.232;8.252;2022-12-05T08:55:36;101823.78;;;3.40;100.00
58243;BME280;50118;53.232;8.252;2022-12-05T08:58:02;101830.75;;;3.41;100.00
58243;BME280;50118;53.232;8.252;2022-12-05T09:00:27;101836.03;;;3.41;100.00
58243;BME280;50118;53.232;8.252;2022-12-05T09:02:52;101840.34;;;3.42;100.00
58243;BME280;50118;53.232;8.252;2022-12-05T09:05:18;101837.72;;;3.42;100.00
58243;BME280;50118;53.232;8.252;2022-12-05T09:07:43;101841.31;;;3.41;100.00
58243;BME280;50118;53.232;8.252;2022-12-05T09:10:09;101835.88;;;3.44;100.00
58243;BME280;50118;53.232;8.252;2022-12-05T09:12:36;101837.59;;;3.45;100.00
58243;BME280;50118;53.232;8.252;2022-12-05T09:15:01;101836.75;;;3.44;100.00
58243;BME280;50118;53.232;8.252;2022-12-05T09:17:26;101830.59;;;3.44;100.00
58243;BME280;50118;53.232;8.252;2022-12-05T09:19:52;101833.22;;;3.44;100.00
58243;BME280;50118;53.232;8.252;2022-12-05T09:22:17;101835.72;;;3.47;100.00
58243;BME280;50118;53.232;8.252;2022-12-05T09:24:42;101833.88;;;3.49;100.00
58243;BME280;50118;53.232;8.252;2022-12-05T09:27:08;101831.16;;;3.50;100.00
58243;BME280;50118;53.232;8.252;2022-12-05T09:29:33;101828.66;;;3.47;100.00
58243;BME280;50118;53.232;8.252;2022-12-05T09:31:59;101827.75;;;3.48;100.00
58243;BME280;50118;53.232;8.252;2022-12-05T09:34:25;101830.31;;;3.50;100.00
58243;BME280;50118;53.232;8.252;2022-12-05T09:36:51;101835.59;;;3.50;100.00
58243;BME280;50118;53.232;8.252;2022-12-05T09:39:17;101834.59;;;3.52;100.00
58243;BME280;50118;53.232;8.252;2022-12-05T09:44:48;101837.13;;;3.54;100.00
58243;BME280;50118;53.232;8.252;2022-12-05T09:53:18;101830.44;;;3.47;100.00
58243;BME280;50118;53.232;8.252;2022-12-05T10:09:53;101827.75;;;3.48;100.00
58243;BME280;50118;53.232;8.252;2022-12-05T10:20:58;101834.81;;;3.48;100.00
58243;BME280;50118;53.232;8.252;2022-12-05T10:23:37;101830.59;;;3.44;100.00
58243;BME280;50118;53.232;8.252;2022-12-05T10:26:05;101822.69;;;3.44;100.00
58243;BME280;50118;53.232;8.252;2022-12-05T10:28:38;101830.44;;;3.47;100.00
58243;BME280;50118;53.232;8.252;2022-12-05T10:31:12;101810.31;;;3.46;100.00
58243;BME280;50118;53.232;8.252;2022-12-05T10:33:44;101822.56;;;3.47;100.00
58243;BME280;50118;53.232;8.252;2022-12-05T10:36:12;101820.06;;;3.44;100.00
58243;BME280;50118;53.232;8.252;2022-12-05T10:38:40;101823.56;;;3.44;100.00
58243;BME280;50118;53.232;8.252;2022-12-05T10:41:08;101821.78;;;3.45;100.00
58243;BME280;50118;53.232;8.252;2022-12-05T10:43:35;101823.50;;;3.46;100.00
58243;BME280;50118;53.232;8.252;2022-12-05T10:46:03;101814.84;;;3.42;100.00
58243;BME280;50118;53.232;8.252;2022-12-05T10:48:29;101810.53;;;3.41;100.00
58243;BME280;50118;53.232;8.252;2022-12-05T10:50:57;101820.38;;;3.38;100.00
58243;BME280;50118;53.232;8.252;2022-12-05T10:53:25;101813.38;;;3.36;100.00
58243;BME280;50118;53.232;8.252;2022-12-05T10:55:52;101812.41;;;3.39;100.00
58243;BME280;50118;53.232;8.252;2022-12-05T10:58:25;101811.50;;;3.39;100.00
58243;BME280;50118;53.232;8.252;2022-12-05T11:00:54;101811.59;;;3.37;100.00
58243;BME280;50118;53.232;8.252;2022-12-05T11:03:26;101809.84;;;3.38;100.00
58243;BME280;50118;53.232;8.252;2022-12-05T11:05:54;101804.44;;;3.41;100.00
58243;BME280;50118;53.232;8.252;2022-12-05T11:08:30;101794.94;;;3.36;100.00
58243;BME280;50118;53.232;8.252;2022-12-05T11:11:17;101790.44;;;3.39;100.00
58243;BME280;50118;53.232;8.252;2022-12-05T11:16:38;101796.59;;;3.39;100.00
58243;BME280;50118;53.232;8.252;2022-12-05T11:21:49;101794.16;;;3.34;100.00
58243;BME280;50118;53.232;8.252;2022-12-05T11:26:58;101788.81;;;3.36;100.00
58243;BME280;50118;53.232;8.252;2022-12-05T11:29:36;101780.09;;;3.35;100.00
58243;BME280;50118;53.232;8.252;2022-12-05T11:32:03;101787.75;;;3.40;100.00
58243;BME280;50118;53.232;8.252;2022-12-05T11:34:34;101786.13;;;3.38;100.00
58243;BME280;50118;53.232;8.252;2022-12-05T11:37:09;101784.47;;;3.35;100.00
58243;BME280;50118;53.232;8.252;2022-12-05T11:39:36;101780.16;;;3.34;100.00
58243;BME280;50118;53.232;8.252;2022-12-05T11:50:41;101779.28;;;3.33;100.00
58243;BME280;50118;53.232;8.252;2022-12-05T11:56:14;101767.69;;;3.38;100.00
58243;BME280;50118;53.232;8.252;2022-12-05T12:04:37;101770.31;;;3.38;100.00
58243;BME280;50118;53.232;8.252;2022-12-05T12:21:16;101754.19;;;3.44;100.00
58243;BME280;50118;53.232;8.252;2022-12-05T12:26:45;101769.09;;;3.45;100.00
58243;BME280;50118;53.232;8.252;2022-12-05T12:30:00;101765.38;;;3.49;100.00
58243;BME280;50118;53.232;8.252;2022-12-05T12:40:54;101764.75;;;3.44;100.00
58243;BME280;50118;53.232;8.252;2022-12-05T12:43:55;101756.59;;;3.31;100.00
58243;BME280;50118;53.232;8.252;2022-12-05T12:51:43;101759.50;;;3.25;100.00
58243;BME280;50118;53.232;8.252;2022-12-05T12:57:01;101764.56;;;3.29;100.00
58243;BME280;50118;53.232;8.252;2022-12-05T13:02:31;101757.56;;;3.28;100.00
58243;BME280;50118;53.232;8.252;2022-12-05T13:05:03;101760.13;;;3.30;100.00
58243;BME280;50118;53.232;8.252;2022-12-05T13:10:13;101757.31;;;3.15;100.00
58243;BME280;50118;53.232;8.252;2022-12-05T13:12:43;101754.75;;;3.14;100.00
58243;BME280;50118;53.232;8.252;2022-12-05T13:15:27;101756.16;;;3.21;100.00
58243;BME280;50118;53.232;8.252;2022-12-05T13:17:56;101760.91;;;3.32;100.00
58243;BME280;50118;53.232;8.252;2022-12-05T13:20:24;101756.53;;;3.32;100.00
58243;BME280;50118;53.232;8.252;2022-12-05T13:22:52;101749.03;;;3.23;100.00
58243;BME280;50118;53.232;8.252;2022-12-05T13:25:20;101754.75;;;3.14;100.00
58243;BME280;50118;53.232;8.252;2022-12-05T13:27:53;101757.38;;;3.14;100.00
58243;BME280;50118;53.232;8.252;2022-12-05T13:30:20;101768.06;;;3.11;100.00
58243;BME280;50118;53.232;8.252;2022-12-05T13:32:54;101765.44;;;3.11;100.00
58243;BME280;50118;53.232;8.252;2022-12-05T13:35:30;101763.06;;;3.05;100.00
58243;BME280;50118;53.232;8.252;2022-12-05T13:38:31;101766.13;;;2.95;100.00
58243;BME280;50118;53.232;8.252;2022-12-05T13:41:19;101760.75;;;2.98;100.00
58243;BME280;50118;53.232;8.252;2022-12-05T13:44:04;101762.72;;;2.93;100.00
58243;BME280;50118;53.232;8.252;2022-12-05T13:46:38;101774.94;;;2.94;100.00
58243;BME280;50118;53.232;8.252;2022-12-05T13:49:16;101763.78;;;2.89;100.00
58243;BME280;50118;53.232;8.252;2022-12-05T13:51:49;101756.19;;;2.83;100.00
58243;BME280;50118;53.232;8.252;2022-12-05T13:54:18;101769.34;;;2.83;100.00
58243;BME280;50118;53.232;8.252;2022-12-05T13:57:00;101764.84;;;2.85;100.00
58243;BME280;50118;53.232;8.252;2022-12-05T14:00:03;101763.13;;;2.84;100.00
58243;BME280;50118;53.232;8.252;2022-12-05T14:02:47;101764.00;;;2.85;100.00
58243;BME280;50118;53.232;8.252;2022-12-05T14:07:43;101769.53;;;2.78;100.00
58243;BME280;50118;53.232;8.252;2022-12-05T14:10:23;101775.66;;;2.79;100.00
58243;BME280;50118;53.232;8.252;2022-12-05T14:13:37;101774.34;;;2.69;100.00
58243;BME280;50118;53.232;8.252;2022-12-05T14:15:45;101776.22;;;2.67;100.00
58243;BME280;50118;53.232;8.252;2022-12-05T14:18:41;101770.03;;;2.68;100.00
58243;BME280;50118;53.232;8.252;2022-12-05T14:26:55;101772.81;;;2.65;100.00
58243;BME280;50118;53.232;8.252;2022-12-05T14:35:11;101769.53;;;2.59;100.00
58243;BME280;50118;53.232;8.252;2022-12-05T14:37:42;101774.91;;;2.56;100.00
58243;BME280;50118;53.232;8.252;2022-12-05T14:40:34;101770.44;;;2.58;100.00
58243;BME280;50118;53.232;8.252;2022-12-05T14:45:31;101777.41;;;2.59;100.00
58243;BME280;50118;53.232;8.252;2022-12-05T14:47:59;101780.44;;;2.50;100.00
58243;BME280;50118;53.232;8.252;2022-12-05T14:50:47;101777.69;;;2.53;100.00
58243;BME280;50118;53.232;8.252;2022-12-05T14:53:29;101783.06;;;2.50;100.00
58243;BME280;50118;53.232;8.252;2022-12-05T14:58:54;101791.47;;;2.58;100.00
58243;BME280;50118;53.232;8.252;2022-12-05T15:01:53;101790.81;;;2.53;100.00
58243;BME280;50118;53.232;8.252;2022-12-05T15:04:20;101781.91;;;2.57;100.00
58243;BME280;50118;53.232;8.252;2022-12-05T15:07:04;101783.59;;;2.58;100.00
58243;BME280;50118;53.232;8.252;2022-12-05T15:12:22;101789.56;;;2.62;100.00
58243;BME280;50118;53.232;8.252;2022-12-05T15:17:24;101776.00;;;2.52;100.00
58243;BME280;50118;53.232;8.252;2022-12-05T15:19:56;101782.94;;;2.53;100.00
58243;BME280;50118;53.232;8.252;2022-12-05T15:22:25;101788.19;;;2.53;100.00
58243;BME280;50118;53.232;8.252;2022-12-05T15:24:52;101786.34;;;2.55;100.00
58243;BME280;50118;53.232;8.252;2022-12-05T15:27:17;101786.50;;;2.52;100.00
58243;BME280;50118;53.232;8.252;2022-12-05T15:29:44;101792.81;;;2.48;100.00
58243;BME280;50118;53.232;8.252;2022-12-05T15:39:55;101795.84;;;2.39;100.00
58243;BME280;50118;53.232;8.252;2022-12-05T15:42:23;101798.72;;;2.33;100.00
58243;BME280;50118;53.232;8.252;2022-12-05T15:44:49;101801.28;;;2.34;100.00
58243;BME280;50118;53.232;8.252;2022-12-05T15:47:22;101795.44;;;2.28;100.00
58243;BME280;50118;53.232;8.252;2022-12-05T15:49:48;101805.97;;;2.28;100.00
58243;BME280;50118;53.232;8.252;2022-12-05T15:52:31;101802.69;;;2.22;100.00